Time;durP1;ratioP1;P1;durP2;ratioP2;P2;SDS_P1;SDS_P2;PMS_P1;PMS_P2;Temp;Humidity;BMP_temperature;BMP_pressure;BME280_temperature;BME280_humidity;BME280_pressure;Samples;Min_cycle;Max_cycle;Signal;HPM_P1;HPM_P2
2022/11/25 00:01:48;;;;;;;14.02;5.13;;;6.70;99.90;;;;;;5014091;28;20128;-78
2022/11/25 00:04:14;;;;;;;19.20;5.20;;;6.70;99.90;;;;;;5014109;28;20042;-78
2022/11/25 00:06:39;;;;;;;13.88;5.43;;;6.70;99.90;;;;;;5034150;28;20029;-78
2022/11/25 00:09:09;;;;;;;16.30;5.10;;;6.70;99.90;;;;;;5029482;28;20496;-77
2022/11/25 00:11:36;;;;;;;15.52;4.95;;;6.80;99.90;;;;;;5030226;28;20045;-78
2022/11/25 00:14:02;;;;;;;17.73;4.38;;;6.80;99.90;;;;;;5011448;28;20100;-78
2022/11/25 00:16:28;;;;;;;16.92;4.63;;;6.80;99.90;;;;;;5024053;28;20095;-78
2022/11/25 00:18:55;;;;;;;19.10;5.28;;;6.80;99.90;;;;;;5021048;28;20510;-78
2022/11/25 00:21:26;;;;;;;16.55;4.32;;;6.80;99.90;;;;;;5022595;28;20392;-78
2022/11/25 00:23:57;;;;;;;19.08;4.43;;;6.90;99.90;;;;;;5033897;28;20052;-78
2022/11/25 00:26:24;;;;;;;11.80;4.40;;;6.90;99.90;;;;;;5030489;28;20052;-78
2022/11/25 00:28:50;;;;;;;16.63;4.13;;;6.90;99.90;;;;;;5033712;28;20152;-77
2022/11/25 00:31:22;;;;;;;16.20;4.80;;;6.90;99.90;;;;;;5034370;28;20033;-78
2022/11/25 00:33:48;;;;;;;17.10;5.13;;;6.90;99.90;;;;;;5018901;28;20128;-77
2022/11/25 00:36:25;;;;;;;9.98;4.10;;;6.90;99.90;;;;;;5033326;28;20160;-78
2022/11/25 00:38:59;;;;;;;14.25;4.63;;;6.90;99.90;;;;;;5027336;28;20518;-78
2022/11/25 00:46:59;;;;;;;13.98;4.30;;;6.90;99.90;;;;;;5030179;28;20100;-78
2022/11/25 00:49:25;;;;;;;13.75;4.15;;;6.90;99.90;;;;;;5032070;28;20034;-78
2022/11/25 00:51:51;;;;;;;15.63;4.70;;;6.90;99.90;;;;;;5018261;28;20044;-78
2022/11/25 00:54:16;;;;;;;13.32;4.90;;;6.90;99.90;;;;;;5034057;28;20037;-78
2022/11/25 00:56:42;;;;;;;13.48;4.45;;;6.90;99.90;;;;;;5017940;28;20045;-78
2022/11/25 00:59:08;;;;;;;13.25;4.50;;;6.90;99.90;;;;;;5015961;28;20038;-78
2022/11/25 01:01:34;;;;;;;15.50;4.43;;;6.90;99.90;;;;;;5034113;28;20033;-77
2022/11/25 01:04:00;;;;;;;15.48;4.68;;;6.90;99.90;;;;;;5023261;28;20514;-77
2022/11/25 01:06:26;;;;;;;18.50;5.82;;;6.90;99.90;;;;;;5034613;28;20075;-78
2022/11/25 01:08:52;;;;;;;10.93;4.10;;;6.90;99.90;;;;;;5033356;28;20052;-78
2022/11/25 01:11:20;;;;;;;17.33;4.57;;;7.00;99.90;;;;;;5016536;28;20040;-77
2022/11/25 01:13:46;;;;;;;12.75;4.07;;;7.00;99.90;;;;;;5032398;28;20127;-77
2022/11/25 01:16:18;;;;;;;14.73;4.43;;;7.00;99.90;;;;;;5033670;28;20577;-77
2022/11/25 01:18:44;;;;;;;16.95;4.43;;;7.00;99.90;;;;;;5016030;28;20045;-77
2022/11/25 01:21:23;;;;;;;13.38;4.28;;;7.00;99.90;;;;;;5016818;28;20049;-77
2022/11/25 01:23:49;;;;;;;14.40;4.65;;;7.00;99.90;;;;;;5034195;28;20037;-78
2022/11/25 01:26:18;;;;;;;12.77;4.38;;;7.10;99.90;;;;;;5033708;28;20029;-78
2022/11/25 01:28:44;;;;;;;16.17;4.82;;;7.10;99.90;;;;;;5008766;28;20124;-78
2022/11/25 01:31:13;;;;;;;14.27;4.57;;;7.10;99.90;;;;;;5015476;28;20041;-78
2022/11/25 01:33:39;;;;;;;22.13;5.25;;;7.10;99.90;;;;;;5015872;28;20042;-79
2022/11/25 01:36:08;;;;;;;17.58;4.38;;;7.10;99.90;;;;;;5032870;28;20060;-79
2022/11/25 01:38:34;;;;;;;15.07;5.22;;;7.10;99.90;;;;;;5030844;28;20077;-78
2022/11/25 01:41:01;;;;;;;14.80;5.00;;;7.10;99.90;;;;;;5015993;28;20455;-79
2022/11/25 01:43:27;;;;;;;12.93;4.68;;;7.10;99.90;;;;;;5031539;28;20450;-78
2022/11/25 01:46:22;;;;;;;21.08;6.00;;;7.10;99.90;;;;;;5032635;28;20487;-79
2022/11/25 01:49:05;;;;;;;17.77;5.32;;;7.00;99.90;;;;;;5012067;28;20052;-79
2022/11/25 01:51:42;;;;;;;18.85;5.53;;;7.00;99.90;;;;;;5031783;28;20072;-78
2022/11/25 01:54:12;;;;;;;19.13;5.50;;;7.00;99.90;;;;;;5034415;28;20040;-78
2022/11/25 01:56:48;;;;;;;20.08;6.03;;;7.00;99.90;;;;;;5016028;28;20092;-78
2022/11/25 01:59:14;;;;;;;16.33;5.72;;;7.00;99.90;;;;;;5031994;28;20045;-79
2022/11/25 02:01:39;;;;;;;23.25;6.60;;;7.00;99.90;;;;;;5014873;28;20044;-79
2022/11/25 02:04:07;;;;;;;20.25;5.63;;;7.00;99.90;;;;;;5035917;28;20035;-78
2022/11/25 02:06:44;;;;;;;18.85;5.60;;;7.00;99.90;;;;;;5016638;28;20076;-78
2022/11/25 02:09:09;;;;;;;25.52;5.95;;;7.00;99.90;;;;;;5014689;28;20480;-78
2022/11/25 02:11:38;;;;;;;17.50;5.55;;;7.00;99.90;;;;;;5015352;28;20091;-79
2022/11/25 02:14:05;;;;;;;25.95;6.55;;;7.00;99.90;;;;;;5027131;28;20077;-78
2022/11/25 02:16:31;;;;;;;18.02;5.43;;;7.00;99.90;;;;;;5013861;28;20037;-78
2022/11/25 02:18:57;;;;;;;14.35;5.15;;;7.10;99.90;;;;;;5029391;28;20038;-78
2022/11/25 02:21:32;;;;;;;21.40;6.10;;;7.10;99.90;;;;;;5031307;28;20033;-79
2022/11/25 02:24:12;;;;;;;22.08;5.88;;;7.10;99.90;;;;;;5014499;28;20033;-78
2022/11/25 02:26:38;;;;;;;25.08;6.75;;;7.10;99.90;;;;;;5016442;28;20430;-79
2022/11/25 02:29:04;;;;;;;24.65;6.60;;;7.10;99.90;;;;;;5030737;28;20094;-79
2022/11/25 02:31:30;;;;;;;18.90;5.60;;;7.10;99.90;;;;;;5014297;28;20045;-78
2022/11/25 02:33:55;;;;;;;21.48;6.28;;;7.10;99.90;;;;;;5030432;28;20042;-78
2022/11/25 02:36:21;;;;;;;29.42;7.70;;;7.10;99.90;;;;;;5031333;28;20484;-78
2022/11/25 02:38:52;;;;;;;26.92;7.55;;;7.10;99.90;;;;;;5029918;28;20501;-78
2022/11/25 02:41:40;;;;;;;20.10;6.13;;;7.20;99.90;;;;;;5031243;28;20496;-78
2022/11/25 02:44:06;;;;;;;26.60;6.25;;;7.10;99.90;;;;;;5013837;28;20410;-78
2022/11/25 02:46:32;;;;;;;18.80;6.55;;;7.10;99.90;;;;;;5030274;28;20037;-78
2022/11/25 02:48:58;;;;;;;18.15;6.15;;;7.10;99.90;;;;;;5031048;28;20041;-77
2022/11/25 02:51:26;;;;;;;27.50;7.30;;;7.10;99.90;;;;;;5031339;28;20080;-77
2022/11/25 02:53:52;;;;;;;23.65;7.32;;;7.20;99.90;;;;;;5017662;28;20495;-76
2022/11/25 02:56:20;;;;;;;23.00;7.72;;;7.20;99.90;;;;;;5017831;28;20037;-77
2022/11/25 02:58:46;;;;;;;24.10;7.28;;;7.20;99.90;;;;;;5030083;28;20045;-77
2022/11/25 03:01:12;;;;;;;21.23;7.30;;;7.20;99.90;;;;;;5030972;28;20048;-77
2022/11/25 03:03:38;;;;;;;27.85;7.88;;;7.30;99.90;;;;;;5029272;28;20036;-77
2022/11/25 03:06:04;;;;;;;24.02;7.57;;;7.30;99.90;;;;;;5034712;28;20488;-77
2022/11/25 03:08:29;;;;;;;27.08;7.63;;;7.30;99.90;;;;;;5014571;28;20045;-77
2022/11/25 03:10:55;;;;;;;24.33;7.65;;;7.30;99.90;;;;;;5030620;28;20052;-78
2022/11/25 03:13:21;;;;;;;23.05;8.32;;;7.30;99.90;;;;;;5029867;28;20128;-78
2022/11/25 03:15:47;;;;;;;20.48;6.97;;;7.30;99.90;;;;;;5030924;28;20073;-78
2022/11/25 03:18:12;;;;;;;24.65;8.05;;;7.30;99.90;;;;;;5034910;28;20419;-78
2022/11/25 03:20:38;;;;;;;28.45;8.18;;;7.30;99.90;;;;;;5018848;28;20057;-77
2022/11/25 03:23:04;;;;;;;23.73;7.32;;;7.40;99.90;;;;;;5029757;28;20048;-77
2022/11/25 03:25:30;;;;;;;27.50;8.93;;;7.40;99.90;;;;;;5030225;28;20116;-77
2022/11/25 03:27:56;;;;;;;22.58;7.28;;;7.40;99.90;;;;;;5014132;28;20176;-77
2022/11/25 03:30:24;;;;;;;24.75;8.32;;;7.40;99.90;;;;;;5036815;28;20079;-79
2022/11/25 03:32:49;;;;;;;31.85;9.55;;;7.40;99.90;;;;;;5036717;28;20037;-77
2022/11/25 03:35:15;;;;;;;24.60;9.20;;;7.40;99.90;;;;;;5029892;28;20048;-78
2022/11/25 03:37:41;;;;;;;25.73;8.13;;;7.40;99.90;;;;;;5029279;28;20038;-77
2022/11/25 03:40:08;;;;;;;34.92;9.90;;;7.40;99.90;;;;;;5030681;28;20041;-78
2022/11/25 03:42:34;;;;;;;27.83;8.93;;;7.40;99.90;;;;;;5029203;28;20029;-77
2022/11/25 03:45:01;;;;;;;29.58;10.85;;;7.40;99.90;;;;;;5030269;28;20033;-77
2022/11/25 03:47:26;;;;;;;29.08;9.07;;;7.50;99.90;;;;;;5013929;28;20037;-77
2022/11/25 03:49:52;;;;;;;29.88;10.00;;;7.40;99.90;;;;;;5033230;28;20048;-77
2022/11/25 03:52:18;;;;;;;28.25;9.30;;;7.40;99.90;;;;;;5033288;28;20676;-77
2022/11/25 03:54:43;;;;;;;33.97;9.82;;;7.40;99.90;;;;;;5034641;28;20044;-77
2022/11/25 03:57:09;;;;;;;35.15;10.32;;;7.40;99.90;;;;;;5018213;28;20115;-77
2022/11/25 03:59:35;;;;;;;31.17;9.55;;;7.50;99.90;;;;;;5033573;28;20068;-77
2022/11/25 04:02:01;;;;;;;30.55;10.13;;;7.50;99.90;;;;;;5034470;28;20137;-77
2022/11/25 04:04:27;;;;;;;21.08;8.80;;;7.50;99.90;;;;;;5034078;28;20448;-78
2022/11/25 04:06:53;;;;;;;27.52;9.15;;;7.50;99.90;;;;;;5034263;28;20522;-77
2022/11/25 04:09:18;;;;;;;37.65;10.27;;;7.50;99.90;;;;;;5045140;28;20045;-76
2022/11/25 04:14:29;;;;;;;31.33;10.13;;;7.50;99.90;;;;;;5033644;28;20056;-77
2022/11/25 04:16:55;;;;;;;26.70;9.13;;;7.50;99.90;;;;;;5033945;28;20090;-77
2022/11/25 04:19:20;;;;;;;27.17;9.73;;;7.50;99.90;;;;;;5034033;28;20521;-77
2022/11/25 04:21:46;;;;;;;31.15;9.52;;;7.50;99.90;;;;;;5031243;28;20087;-78
2022/11/25 04:24:12;;;;;;;28.60;9.15;;;7.50;99.90;;;;;;5032713;28;20518;-76
2022/11/25 04:26:37;;;;;;;36.08;10.27;;;7.50;99.90;;;;;;5035035;28;20064;-76
2022/11/25 04:29:03;;;;;;;26.42;9.23;;;7.50;99.90;;;;;;5020261;28;20037;-76
2022/11/25 04:31:28;;;;;;;25.88;9.02;;;7.50;99.90;;;;;;5036900;28;20037;-77
2022/11/25 04:33:54;;;;;;;22.40;8.48;;;7.50;99.90;;;;;;5034760;28;20033;-77
2022/11/25 04:36:20;;;;;;;37.08;10.68;;;7.50;99.90;;;;;;5018884;28;20038;-77
2022/11/25 04:38:45;;;;;;;29.05;10.43;;;7.50;99.90;;;;;;5017708;28;20140;-76
2022/11/25 04:41:11;;;;;;;23.45;9.57;;;7.50;99.90;;;;;;5035243;28;20475;-76
2022/11/25 04:43:36;;;;;;;29.50;10.30;;;7.50;99.90;;;;;;5019465;28;20051;-76
2022/11/25 04:46:02;;;;;;;40.60;10.85;;;7.50;99.90;;;;;;5019157;28;20056;-77
2022/11/25 04:48:28;;;;;;;37.40;11.13;;;7.50;99.90;;;;;;5035610;28;20052;-77
2022/11/25 04:50:54;;;;;;;30.08;10.52;;;7.50;99.90;;;;;;5040009;28;20044;-76
2022/11/25 04:53:20;;;;;;;29.02;9.75;;;7.50;99.90;;;;;;5035238;28;20411;-77
2022/11/25 04:55:46;;;;;;;26.52;9.35;;;7.50;99.90;;;;;;5034425;28;20040;-77
2022/11/25 04:58:12;;;;;;;26.60;9.45;;;7.50;99.90;;;;;;5034615;28;20045;-76
2022/11/25 05:00:37;;;;;;;38.70;11.27;;;7.50;99.90;;;;;;5034060;28;20029;-77
2022/11/25 05:03:03;;;;;;;26.08;9.45;;;7.50;99.90;;;;;;5017877;28;20072;-77
2022/11/25 05:05:29;;;;;;;28.48;11.55;;;7.50;99.90;;;;;;5037340;28;20072;-76
2022/11/25 05:07:55;;;;;;;25.02;9.75;;;7.50;99.90;;;;;;5036148;28;20053;-77
2022/11/25 05:10:21;;;;;;;28.10;10.63;;;7.50;99.90;;;;;;5020011;28;20499;-76
2022/11/25 05:12:46;;;;;;;29.48;10.85;;;7.50;99.90;;;;;;5018397;28;20053;-76
2022/11/25 05:15:12;;;;;;;38.08;10.20;;;7.50;99.90;;;;;;5020730;28;20104;-77
2022/11/25 05:17:38;;;;;;;28.33;9.55;;;7.50;99.90;;;;;;5036149;28;20125;-76
2022/11/25 05:20:05;;;;;;;28.95;9.73;;;7.60;99.90;;;;;;5020869;28;20064;-76
2022/11/25 05:22:32;;;;;;;27.60;10.68;;;7.60;99.90;;;;;;5034295;28;20045;-77
2022/11/25 05:24:58;;;;;;;26.42;9.75;;;7.60;99.90;;;;;;5019714;28;20510;-77
2022/11/25 05:27:25;;;;;;;33.22;9.57;;;7.60;99.90;;;;;;5031783;28;20176;-76
2022/11/25 05:29:51;;;;;;;29.70;10.15;;;7.60;99.90;;;;;;5033472;28;20033;-77
2022/11/25 05:32:16;;;;;;;27.27;9.52;;;7.60;99.90;;;;;;5032731;28;20621;-76
2022/11/25 05:34:42;;;;;;;31.27;10.00;;;7.60;99.90;;;;;;5032532;28;20037;-76
2022/11/25 05:37:11;;;;;;;25.45;9.13;;;7.60;99.90;;;;;;5035845;28;20033;-77
2022/11/25 05:39:37;;;;;;;26.98;9.02;;;7.70;99.90;;;;;;5035760;28;20048;-77
2022/11/25 05:42:03;;;;;;;27.80;9.23;;;7.70;99.90;;;;;;5031614;28;20037;-77
2022/11/25 05:44:28;;;;;;;32.33;9.02;;;7.70;99.90;;;;;;5048384;28;20052;-76
2022/11/25 05:46:54;;;;;;;26.52;8.57;;;7.70;99.90;;;;;;5032504;28;20040;-75
2022/11/25 05:49:20;;;;;;;29.50;9.40;;;7.70;99.90;;;;;;5028755;28;20037;-77
2022/11/25 05:51:46;;;;;;;23.85;8.18;;;7.70;99.90;;;;;;5030294;28;20037;-76
2022/11/25 05:54:12;;;;;;;23.20;7.90;;;7.70;99.90;;;;;;5032410;28;20045;-76
2022/11/25 05:56:38;;;;;;;26.83;7.88;;;7.80;99.90;;;;;;5015692;28;20500;-76
2022/11/25 05:59:04;;;;;;;25.30;7.78;;;7.80;99.90;;;;;;5031744;28;20124;-76
2022/11/25 06:01:30;;;;;;;22.60;7.38;;;7.80;99.90;;;;;;5014994;28;20041;-76
2022/11/25 06:03:59;;;;;;;20.08;6.65;;;7.80;99.90;;;;;;5030877;28;20104;-76
2022/11/25 06:06:25;;;;;;;17.95;6.60;;;7.80;99.90;;;;;;5030313;28;20041;-76
2022/11/25 06:08:51;;;;;;;26.77;8.02;;;7.80;99.90;;;;;;5016042;28;20049;-76
2022/11/25 06:11:17;;;;;;;23.95;7.13;;;7.80;99.90;;;;;;5015457;28;20064;-77
2022/11/25 06:13:43;;;;;;;23.15;6.78;;;7.80;99.90;;;;;;5014301;28;20090;-76
2022/11/25 06:16:17;;;;;;;22.00;6.70;;;7.80;99.90;;;;;;5031561;28;20038;-76
2022/11/25 06:18:43;;;;;;;19.70;7.07;;;7.80;99.90;;;;;;5023119;28;20041;-76
2022/11/25 06:21:09;;;;;;;22.77;7.57;;;7.80;99.90;;;;;;5015020;28;20029;-76
2022/11/25 06:23:36;;;;;;;18.63;6.38;;;7.80;99.90;;;;;;5021260;28;20062;-77
2022/11/25 06:26:11;;;;;;;18.35;6.45;;;7.80;99.90;;;;;;5014075;28;20038;-77
2022/11/25 06:28:37;;;;;;;17.48;6.15;;;7.80;99.90;;;;;;5031695;28;20049;-77
2022/11/25 06:31:10;;;;;;;19.15;5.72;;;7.80;99.90;;;;;;5015396;28;20125;-77
2022/11/25 06:33:36;;;;;;;25.65;6.47;;;7.70;99.90;;;;;;5029878;28;20045;-77
2022/11/25 06:36:08;;;;;;;16.15;6.32;;;7.80;99.90;;;;;;5031483;28;20049;-77
2022/11/25 06:38:34;;;;;;;22.52;6.38;;;7.70;99.90;;;;;;5031721;28;20048;-77
2022/11/25 06:41:02;;;;;;;16.17;5.97;;;7.60;99.90;;;;;;5014437;28;20038;-76
2022/11/25 06:43:28;;;;;;;15.13;5.15;;;7.50;99.90;;;;;;5014534;28;20037;-77
2022/11/25 06:45:53;;;;;;;17.77;5.90;;;7.50;99.90;;;;;;5031869;28;20125;-77
2022/11/25 06:48:19;;;;;;;17.58;5.07;;;7.40;99.90;;;;;;5036004;28;20099;-77
2022/11/25 06:50:44;;;;;;;21.95;5.68;;;7.30;99.90;;;;;;5019519;28;20052;-77
2022/11/25 06:53:10;;;;;;;21.48;5.75;;;7.30;99.90;;;;;;5031059;28;20041;-77
2022/11/25 06:55:35;;;;;;;19.40;5.82;;;7.20;99.90;;;;;;5031514;28;20048;-77
2022/11/25 06:58:01;;;;;;;13.10;5.32;;;7.10;99.90;;;;;;5013476;28;20045;-76
2022/11/25 07:00:26;;;;;;;19.02;5.30;;;7.10;99.90;;;;;;5015846;28;20025;-75
2022/11/25 07:02:53;;;;;;;14.43;5.25;;;7.10;99.90;;;;;;5014556;28;20076;-76
2022/11/25 07:05:18;;;;;;;16.80;6.10;;;7.00;99.90;;;;;;5029587;28;20508;-76
2022/11/25 07:07:44;;;;;;;17.27;5.57;;;7.00;99.90;;;;;;5033660;28;20118;-77
2022/11/25 07:10:10;;;;;;;19.63;5.57;;;6.90;99.90;;;;;;5030867;28;20071;-76
2022/11/25 07:12:35;;;;;;;17.92;5.80;;;6.90;99.90;;;;;;5032205;28;20041;-77
2022/11/25 07:15:01;;;;;;;15.23;5.40;;;6.90;99.90;;;;;;5042099;28;20375;-76
2022/11/25 07:17:26;;;;;;;21.85;5.85;;;6.90;99.90;;;;;;5034837;28;20102;-77
2022/11/25 07:19:52;;;;;;;20.58;5.72;;;6.80;99.90;;;;;;5033595;28;20483;-76
2022/11/25 07:22:17;;;;;;;12.50;5.28;;;6.80;99.90;;;;;;5029826;28;20037;-76
2022/11/25 07:24:43;;;;;;;17.50;5.60;;;6.70;99.90;;;;;;5032374;28;20033;-75
2022/11/25 07:27:09;;;;;;;19.20;6.13;;;6.70;99.90;;;;;;5036677;28;20068;-77
2022/11/25 07:29:34;;;;;;;14.90;5.30;;;6.70;99.90;;;;;;5033094;28;20495;-76
2022/11/25 07:32:00;;;;;;;21.85;6.25;;;6.60;99.90;;;;;;5031801;28;20041;-78
2022/11/25 07:34:26;;;;;;;20.25;6.03;;;6.60;99.90;;;;;;5025614;28;20050;-76
2022/11/25 07:36:51;;;;;;;20.08;6.45;;;6.60;99.90;;;;;;5023632;28;20047;-76
2022/11/25 07:39:20;;;;;;;19.83;6.28;;;6.60;99.90;;;;;;4997480;28;20527;-76
2022/11/25 07:41:53;;;;;;;22.67;7.18;;;6.60;99.90;;;;;;5014022;28;20033;-76
2022/11/25 07:44:19;;;;;;;13.55;5.88;;;6.60;99.90;;;;;;5014059;28;20116;-76
2022/11/25 07:46:47;;;;;;;16.17;6.13;;;6.60;99.90;;;;;;5006173;28;20130;-77
2022/11/25 07:49:21;;;;;;;17.40;6.57;;;6.60;99.90;;;;;;5033427;28;20052;-76
2022/11/25 07:51:53;;;;;;;22.95;7.13;;;6.60;99.90;;;;;;5014170;28;20112;-76
2022/11/25 07:54:21;;;;;;;26.07;8.23;;;6.60;99.90;;;;;;5029714;28;20037;-75
2022/11/25 07:56:47;;;;;;;24.00;7.68;;;6.60;99.90;;;;;;5029916;28;20042;-78
2022/11/25 07:59:19;;;;;;;23.92;7.82;;;6.70;99.90;;;;;;5014822;28;20131;-77
2022/11/25 08:01:44;;;;;;;27.60;8.40;;;6.70;99.90;;;;;;5028375;28;20060;-77
2022/11/25 08:04:12;;;;;;;20.25;7.90;;;6.70;99.90;;;;;;5047429;28;20051;-76
2022/11/25 08:06:41;;;;;;;18.55;7.93;;;6.70;99.90;;;;;;5033757;28;20090;-74
2022/11/25 08:09:08;;;;;;;18.02;7.95;;;6.70;99.90;;;;;;5026548;28;20367;-77
2022/11/25 08:11:34;;;;;;;20.55;7.70;;;6.80;99.90;;;;;;5017108;28;20037;-77
2022/11/25 08:14:01;;;;;;;23.10;8.30;;;6.80;99.90;;;;;;5036366;28;20407;-77
2022/11/25 08:16:30;;;;;;;25.52;8.80;;;6.80;99.90;;;;;;5020038;28;20051;-77
2022/11/25 08:18:56;;;;;;;21.10;8.02;;;6.80;99.90;;;;;;5033689;28;20091;-77
2022/11/25 08:21:23;;;;;;;26.38;9.00;;;6.90;99.90;;;;;;5032877;28;20556;-76
2022/11/25 08:23:51;;;;;;;23.15;8.50;;;7.00;99.90;;;;;;5034281;28;20056;-76
2022/11/25 08:26:46;;;;;;;20.35;8.52;;;7.00;99.90;;;;;;5034043;28;20154;-77
2022/11/25 08:29:14;;;;;;;19.65;8.65;;;7.00;99.90;;;;;;5016609;28;20415;-77
2022/11/25 08:31:41;;;;;;;22.92;8.68;;;7.10;99.90;;;;;;5034738;28;20047;-76
2022/11/25 08:34:07;;;;;;;22.30;8.85;;;7.10;99.90;;;;;;5017370;28;20044;-77
2022/11/25 08:36:34;;;;;;;23.33;9.63;;;7.10;99.90;;;;;;5036960;28;20506;-77
2022/11/25 08:39:02;;;;;;;21.95;9.30;;;7.20;99.90;;;;;;5020173;28;20095;-76
2022/11/25 08:41:31;;;;;;;27.60;9.63;;;7.20;99.90;;;;;;5036540;28;20044;-73
2022/11/25 08:43:58;;;;;;;27.58;9.23;;;7.20;99.90;;;;;;5042207;28;20391;-76
2022/11/25 08:46:28;;;;;;;23.83;9.98;;;7.20;99.90;;;;;;5020508;28;20029;-77
2022/11/25 08:48:55;;;;;;;23.33;10.32;;;7.20;99.90;;;;;;5036528;28;20041;-77
2022/11/25 08:51:24;;;;;;;21.23;9.82;;;7.30;99.90;;;;;;5037057;28;20037;-77
2022/11/25 08:53:50;;;;;;;18.45;9.75;;;7.30;99.90;;;;;;5036095;28;20047;-75
2022/11/25 08:56:16;;;;;;;21.48;10.30;;;7.30;99.90;;;;;;5036931;28;20084;-76
2022/11/25 08:58:42;;;;;;;26.70;10.43;;;7.40;99.90;;;;;;5019705;28;20052;-77
2022/11/25 09:01:09;;;;;;;25.88;10.23;;;7.40;99.90;;;;;;5036621;28;20473;-76
2022/11/25 09:03:37;;;;;;;31.63;10.88;;;7.40;99.90;;;;;;5036721;28;20044;-77
2022/11/25 09:06:06;;;;;;;23.63;10.05;;;7.30;99.90;;;;;;5036536;28;20037;-77
2022/11/25 09:08:32;;;;;;;19.90;9.93;;;7.50;99.90;;;;;;5070600;22;20052;-75
2022/11/25 09:10:58;;;;;;;23.00;10.35;;;7.50;99.90;;;;;;5001265;28;20034;-75
2022/11/25 09:13:24;;;;;;;16.85;10.15;;;7.50;99.90;;;;;;5004393;28;20484;-75
2022/11/25 09:15:49;;;;;;;22.42;11.02;;;7.60;99.90;;;;;;4993464;28;20038;-75
2022/11/25 09:18:17;;;;;;;19.77;10.25;;;7.60;99.90;;;;;;4993172;28;20043;-75
2022/11/25 09:20:43;;;;;;;19.60;10.40;;;7.70;99.90;;;;;;4993483;28;20046;-75
2022/11/25 09:23:09;;;;;;;25.33;11.57;;;7.70;99.90;;;;;;5001478;28;20135;-75
2022/11/25 09:25:35;;;;;;;18.88;10.77;;;7.70;99.90;;;;;;4994985;28;20045;-74
2022/11/25 09:28:02;;;;;;;14.70;9.00;;;7.80;99.90;;;;;;4997898;28;21315;-75
2022/11/25 09:30:27;;;;;;;17.45;9.10;;;7.90;99.90;;;;;;5009628;28;20162;-74
2022/11/25 09:32:54;;;;;;;14.20;9.00;;;7.90;99.90;;;;;;5010886;28;20045;-75
2022/11/25 09:35:21;;;;;;;17.08;8.93;;;8.00;99.90;;;;;;5027029;28;20073;-75
2022/11/25 09:37:47;;;;;;;17.92;9.32;;;8.00;99.90;;;;;;5010742;28;20125;-75
2022/11/25 09:40:35;;;;;;;16.98;8.80;;;8.10;99.90;;;;;;5028466;28;20045;-75
2022/11/25 09:46:40;;;;;;;23.40;9.43;;;8.20;99.90;;;;;;5010700;28;20550;-76
2022/11/25 09:50:05;;;;;;;14.57;7.68;;;8.30;99.90;;;;;;5026599;28;20126;-77
2022/11/25 09:53:03;;;;;;;14.15;7.38;;;8.30;99.90;;;;;;4933127;28;20039;-76
2022/11/25 09:55:37;;;;;;;13.55;7.15;;;8.40;99.90;;;;;;4956475;28;20076;-76
2022/11/25 09:58:12;;;;;;;12.30;6.82;;;8.40;99.90;;;;;;5009313;28;20089;-76
2022/11/25 10:00:45;;;;;;;15.43;7.10;;;8.40;99.90;;;;;;5014100;28;20034;-76
2022/11/25 10:03:34;;;;;;;13.57;6.15;;;8.40;99.90;;;;;;5006638;28;20038;-76
2022/11/25 10:06:25;;;;;;;11.18;6.65;;;8.50;99.90;;;;;;4997070;28;20054;-76
2022/11/25 10:09:01;;;;;;;16.55;6.78;;;8.60;99.90;;;;;;5000263;28;20160;-76
2022/11/25 10:11:48;;;;;;;11.38;5.95;;;8.50;99.90;;;;;;5010733;28;20041;-76
2022/11/25 10:14:31;;;;;;;10.80;5.78;;;8.60;99.90;;;;;;5013610;28;20466;-76
2022/11/25 10:17:03;;;;;;;10.75;5.63;;;8.70;99.90;;;;;;5004367;28;20103;-77
2022/11/25 10:19:43;;;;;;;10.82;5.43;;;8.70;99.90;;;;;;5017957;28;20045;-76
2022/11/25 10:22:29;;;;;;;11.43;5.55;;;8.70;99.90;;;;;;5010021;28;20105;-76
2022/11/25 10:25:02;;;;;;;14.23;5.82;;;8.80;99.90;;;;;;5000605;28;20461;-77
2022/11/25 10:27:53;;;;;;;10.00;5.35;;;8.80;99.90;;;;;;5012940;28;20038;-76
2022/11/25 10:30:42;;;;;;;11.18;5.35;;;8.90;99.90;;;;;;5016001;28;20038;-76
2022/11/25 10:33:21;;;;;;;12.07;4.60;;;8.90;99.90;;;;;;4966862;28;20124;-76
2022/11/25 10:35:55;;;;;;;9.77;4.85;;;9.00;99.90;;;;;;5021026;28;20037;-76
2022/11/25 10:38:55;;;;;;;11.20;5.10;;;9.00;99.90;;;;;;5008284;28;20128;-76
2022/11/25 10:41:24;;;;;;;9.10;4.65;;;9.00;99.90;;;;;;5017357;28;20045;-77
2022/11/25 10:43:50;;;;;;;9.77;5.03;;;9.10;99.90;;;;;;5018772;28;20127;-76
2022/11/25 10:46:36;;;;;;;12.52;5.40;;;9.20;99.90;;;;;;5012522;28;20034;-76
2022/11/25 10:49:25;;;;;;;10.27;4.93;;;9.20;99.90;;;;;;5009725;28;20072;-76
2022/11/25 10:51:51;;;;;;;8.10;4.60;;;9.30;99.90;;;;;;5016779;28;20066;-78
2022/11/25 10:54:21;;;;;;;10.10;4.68;;;9.40;99.90;;;;;;5018160;28;20065;-77
2022/11/25 10:56:55;;;;;;;8.20;4.07;;;9.50;99.90;;;;;;5008706;28;20111;-79
2022/11/25 10:59:33;;;;;;;10.05;4.13;;;9.50;99.90;;;;;;5018806;28;20042;-76
2022/11/25 11:02:24;;;;;;;10.45;4.50;;;9.50;99.90;;;;;;5020223;28;20449;-76
2022/11/25 11:04:59;;;;;;;8.27;4.03;;;9.60;99.90;;;;;;5007564;28;20038;-78
2022/11/25 11:10:25;;;;;;;9.23;4.25;;;9.70;99.90;;;;;;5071998;22;20068;-76
2022/11/25 11:13:00;;;;;;;7.40;3.70;;;9.80;99.90;;;;;;5030784;28;20049;-78
2022/11/25 11:15:32;;;;;;;9.60;4.03;;;9.90;99.90;;;;;;5021502;28;20686;-78
2022/11/25 11:18:12;;;;;;;11.73;4.28;;;10.00;99.90;;;;;;5023217;28;20115;-78
2022/11/25 11:20:45;;;;;;;12.13;4.07;;;10.00;99.90;;;;;;5035134;28;20375;-78
2022/11/25 11:23:14;;;;;;;8.63;4.05;;;10.10;99.90;;;;;;5023814;28;20029;-78
2022/11/25 11:25:42;;;;;;;10.10;4.22;;;10.20;99.90;;;;;;5013343;28;20036;-78
2022/11/25 11:28:35;;;;;;;10.23;4.30;;;10.30;99.90;;;;;;5032882;28;20071;-77
2022/11/25 11:31:06;;;;;;;;;;;10.50;99.90;;;;;;5012221;28;20504;-79
2022/11/25 11:33:47;;;;;;;10.00;3.92;;;10.70;99.90;;;;;;5010688;28;20297;-78
2022/11/25 11:36:54;;;;;;;8.55;3.50;;;10.80;99.90;;;;;;5027146;28;20041;-79
2022/11/25 11:39:58;;;;;;;10.55;3.67;;;11.00;99.90;;;;;;4999124;28;20046;-79
2022/11/25 11:42:57;;;;;;;11.35;4.40;;;11.20;99.90;;;;;;5011146;28;20739;-79
2022/11/25 11:45:22;;;;;;;13.40;4.15;;;11.40;99.90;;;;;;5011043;28;20129;-78
2022/11/25 11:48:16;;;;;;;10.88;3.85;;;11.50;99.90;;;;;;5010779;28;20132;-78
2022/11/25 11:50:56;;;;;;;9.52;3.30;;;11.50;99.90;;;;;;5019711;28;20033;-78
2022/11/25 11:53:49;;;;;;;9.48;3.65;;;11.60;99.90;;;;;;5030648;28;20041;-79
2022/11/25 11:56:31;;;;;;;10.30;3.50;;;11.70;99.90;;;;;;5014632;28;20483;-78
2022/11/25 11:59:34;;;;;;;8.35;3.58;;;11.70;99.90;;;;;;5030446;28;20045;-78
2022/11/25 12:02:21;;;;;;;9.15;3.35;;;11.70;99.90;;;;;;5011989;28;20523;-78
2022/11/25 12:04:54;;;;;;;10.88;3.40;;;11.60;99.90;;;;;;5028952;28;20042;-79
2022/11/25 12:07:35;;;;;;;;;;;11.50;99.90;;;;;;5020701;28;20041;-79
2022/11/25 12:10:09;;;;;;;10.65;3.58;;;11.50;99.90;;;;;;5026762;28;19967;-78
2022/11/25 12:12:41;;;;;;;9.50;2.88;;;11.50;99.90;;;;;;5023227;28;20033;-78
2022/11/25 12:15:47;;;;;;;11.27;4.13;;;11.50;99.90;;;;;;5011262;28;20030;-78
2022/11/25 12:18:46;;;;;;;8.05;2.92;;;11.40;99.90;;;;;;4951855;29;20083;-78
2022/11/25 12:21:40;;;;;;;9.27;3.22;;;11.30;99.90;;;;;;5026647;28;20416;-78
2022/11/25 12:24:09;;;;;;;10.52;2.90;;;11.10;99.90;;;;;;5016339;28;20029;-78
2022/11/25 12:26:57;;;;;;;7.00;2.65;;;10.90;99.90;;;;;;5033954;28;20248;-78
2022/11/25 12:29:43;;;;;;;14.15;3.28;;;10.90;99.90;;;;;;5049271;28;20046;-78
2022/11/25 12:32:36;;;;;;;10.55;3.60;;;10.90;99.90;;;;;;5031408;28;20077;-78
2022/11/25 12:35:09;;;;;;;8.48;2.78;;;10.90;99.90;;;;;;5033742;28;20414;-79
2022/11/25 12:37:38;;;;;;;;;;;10.90;99.90;;;;;;5033726;28;20419;-78
2022/11/25 12:40:14;;;;;;;8.77;3.13;;;10.80;99.90;;;;;;5033302;28;19947;-79
2022/11/25 12:42:41;;;;;;;7.95;3.03;;;10.80;99.90;;;;;;5027634;28;20600;-78
2022/11/25 12:45:24;;;;;;;8.30;3.08;;;10.90;99.90;;;;;;5009204;28;20147;-78
2022/11/25 12:47:50;;;;;;;12.18;3.50;;;11.00;99.90;;;;;;5019411;28;20048;-78
2022/11/25 12:50:25;;;;;;;5.90;2.42;;;11.10;99.90;;;;;;5033279;28;20496;-78
2022/11/25 12:52:58;;;;;;;7.90;2.80;;;11.10;99.90;;;;;;5027197;28;20034;-78
2022/11/25 12:55:26;;;;;;;10.88;3.13;;;11.10;99.90;;;;;;5017533;28;20033;-78
2022/11/25 12:58:33;;;;;;;9.20;3.08;;;11.20;99.90;;;;;;5036981;23;20041;-77
2022/11/25 13:01:07;;;;;;;8.02;3.25;;;11.20;99.90;;;;;;4996366;28;20182;-78
2022/11/25 13:03:48;;;;;;;9.23;3.10;;;11.10;99.90;;;;;;5013926;28;20065;-78
2022/11/25 13:06:29;;;;;;;10.45;2.80;;;10.90;99.90;;;;;;5030041;28;20042;-78
2022/11/25 13:09:34;;;;;;;10.75;3.85;;;10.90;99.90;;;;;;5008810;28;20089;-78
2022/11/25 13:12:03;;;;;;;10.73;2.80;;;11.00;99.90;;;;;;5010899;28;20129;-79
2022/11/25 13:15:02;;;;;;;9.10;3.17;;;11.00;99.90;;;;;;5021147;28;20524;-79
2022/11/25 13:17:33;;;;;;;10.23;2.53;;;11.00;99.90;;;;;;5023432;28;20041;-78
2022/11/25 13:20:27;;;;;;;10.32;3.20;;;11.10;99.90;;;;;;5024914;28;20041;-78